Ana Sayfa
METAR-TAF:

METAR-TAF

Havaalanları :

Elk Valley

Sparwood, İngiliz Kolombiyası, Kanada

Enlem: 49-45N, Boylam: 114-53W, yükseklik: 1138 m

Güncel hava durumu gözlemi

Rapor saat 21:19 UTC de 35 dakika önce yapıldı.
Rüzgar kuzeydoğudan 3 kt, kuzey/kuzeydoğu ve güney arasında değişken
Sıcaklık 2°C
Nem 64%
Basınç 1023 hPa
Görüş mesafesi: 19.3 km
1700 ft yükseklikte parçalı bulutlu
2700 ft yükseklikte parçalı çok bulutlu, Yükselen kümülüs.
4000 ft yükseklikte parçalı çok bulutlu, Yükselen kümülüs.
Civarda sağanaklar

METAR: CWSW 242119Z 04003KT 030V190 12SM VCSH SCT017 BKN027TCU BKN040TCU 02/M04 A3020 RMK ST3TCU2TCU2 VIS N AND S 6 SH N AND S SLP269

Saat: 14:54 (21:54 UTC)


TAF: eksik

4.000'den fazla havaalanı için hava durumu gözlemleri ve tahminleri (METAR ve TAF raporları).

Kullanılabilir istasyonlar harita üzerinde sarı ve kırmızı noktalarla gösterilir.

İstasyonun adını görmek için fareyi noktanın üzerinde gezdirin.

Sonrasında hava gözlem ve tahminlerini görmek için tıklayın.

Haritayı değiştirmek için: yaklaştırmak için siyah artı işaretli yeşil düğmeye ve uzaklaştırmak için de eksi işaretli düğmeye hızla tıklayın; bitişik haritalar için yeşil okları kullanın.


METAR-TAF: